Bellingham International Airport
KBLI : now visible

Airfield :











YOU CAN JOIN US ON...

 
LOGIN :

Register | Disclaimer

   EN    FR    IT 

 









Legend :    VFR   Marginal VFR   IFR   Intensive IFR   Very Intensive IFR
Visi :
Ceiling :
>= 8 km
>= 3000ft
5 to 8 km
1000 to 3000 ft
1500m to 5 km
500 to 1000 ft
800 to 1500m
200 to 500 ft
< 800m
< 200 ft
Symbols :   Thunderstorms  Fog  Heavy snow  Heavy precipitations  Wind > 20 kt







- Airport Elevation : 170 ft
- IATA code : BLI


KBLI - Bellingham International

CURRENT METAR :
  • 210953Z AUTO 01003KT 10SM SCT075 BKN090 OVC110 09/08 A2972 RMK AO2 SLP070 T00940078

EXPIRED METARs :
  • 210853Z AUTO 00000KT 10SM OVC080 10/08 A2972 RMK AO2 RAB34E51 SLP072 P0001 60002 T01000083 58010
  • 210753Z AUTO 18003KT 10SM OVC070 11/08 A2974 RMK AO2 RAE52 SLP076 P0000 T01060083 401390106

TAF KBLI
Valid from the 21 at 06:00 until the 22 at 06:00 UTC


210521Z 2106/2206 16006KT P6SM -RA OVC030
TEMPO 2106/2109 4SM -RA OVC015
FM210900 00000KT 4SM BR OVC015
TEMPO 2109/2112 4SM -RA OVC015
FM211200 00000KT 4SM BR OVC007
FM211500 25003KT P6SM OVC015
FM212100 28005KT P6SM OVC100
FM220000 VRB04KT P6SM SCT250
KZSE FIR / North America



MET'MAP, your aeronautical weather chart ! - Copyright ORBIFLY December 2007 - Disclaimer

ORBIFLY MET'MAP TEAM :

Programming & Development : Alexandra Zaïnal
Concept & Development : Baudouin d'Aumeries
Co-Development & Prog : Marc-Olivier Méhu
Technical & hardware support : Manuel Goepfert

Contact : metmap@orbifly.com




SOURCES & CREDITS :

   NOAA       Earth
Advisory